Harold B Dodd — WDI4802 — position and weather

sailwx.info

Track history (hours):
 
Tides and Currents Weather Stations Pressure Air Temp Water Temp Dewpoint Dewpoint Depression Visibility Wind Speed Wind Dir Waves Ship Positions

Harold B Dodd

Owner: ACBL River Operations LLC, Jeffersonville, IN. More information available from US FCC via Universal Licensing System and Coast Guard Vessel Documentation Center.

Last reported at 2017-Nov-15 09:58 UTC. Time now 2017-Nov-20 22:57 UTC.
Position N 31°44' W 091°23'.

Length 57 m; draft 3.6 m.

Type: Towing. MMSI: 367702150.

Date/timePositionNaut miles runAvg speedWind from/ knotsBaromVisibWave heightAir tempDewpointWater temp
2017-Nov-15 09:58N 31°44' W 091°23'5 7.6
2017-Nov-15 09:15N 31°49' W 091°21'4 6.5
2017-Nov-15 08:37N 31°51' W 091°17'2 7.0
2017-Nov-15 08:24N 31°51' W 091°16'7 7.3
2017-Nov-15 07:27N 31°57' W 091°11'4 6.5
2017-Nov-15 06:55N 31°59' W 091°08'3 6.6
2017-Nov-15 06:30N 32°00' W 091°05'4 7.1
2017-Nov-15 05:54N 32°05' W 091°04'3 7.7
2017-Nov-15 05:30N 32°07' W 091°06'2 3.0
2017-Nov-15 05:00N 32°08' W 091°05'4 7.5
2017-Nov-15 04:30N 32°07' W 091°01'4 7.6
2017-Nov-15 04:00N 32°11' W 090°60'4 7.6
2017-Nov-15 03:30N 32°15' W 090°59'4 7.3
2017-Nov-15 03:00N 32°17' W 090°56'3 6.5
2017-Nov-15 02:30N 32°21' W 090°55'3 6.9
2017-Nov-15 02:00N 32°21' W 090°59'4 7.2
2017-Nov-15 01:30N 32°25' W 090°59'4 7.4
2017-Nov-15 01:00N 32°26' W 091°03'4 7.5
2017-Nov-15 00:30N 32°29' W 091°07'4 7.9
2017-Nov-14 23:59N 32°33' W 091°06'4 7.6
2017-Nov-14 23:30N 32°36' W 091°08'4 7.6
2017-Nov-14 22:59N 32°40' W 091°08'  
Track history (hours):
 
Tides and Currents Weather Stations Pressure Air Temp Water Temp Dewpoint Dewpoint Depression Visibility Wind Speed Wind Dir Waves Ship Positions

Harold B Dodd

Owner: ACBL River Operations LLC, Jeffersonville, IN. More information available from US FCC via Universal Licensing System and Coast Guard Vessel Documentation Center.

Last reported at 2017-Nov-15 09:58 UTC. Time now 2017-Nov-20 22:57 UTC.
Position N 31°44' W 091°23'.

Length 57 m; draft 3.6 m.

Type: Towing. MMSI: 367702150.

Date/timePositionNaut miles runAvg speedWind from/ knotsBaromVisibWave heightAir tempDewpointWater temp
2017-Nov-15 09:58N 31°44' W 091°23'5 7.6
2017-Nov-15 09:15N 31°49' W 091°21'4 6.5
2017-Nov-15 08:37N 31°51' W 091°17'2 7.0
2017-Nov-15 08:24N 31°51' W 091°16'7 7.3
2017-Nov-15 07:27N 31°57' W 091°11'4 6.5
2017-Nov-15 06:55N 31°59' W 091°08'3 6.6
2017-Nov-15 06:30N 32°00' W 091°05'4 7.1
2017-Nov-15 05:54N 32°05' W 091°04'3 7.7
2017-Nov-15 05:30N 32°07' W 091°06'2 3.0
2017-Nov-15 05:00N 32°08' W 091°05'4 7.5
2017-Nov-15 04:30N 32°07' W 091°01'4 7.6
2017-Nov-15 04:00N 32°11' W 090°60'4 7.6
2017-Nov-15 03:30N 32°15' W 090°59'4 7.3
2017-Nov-15 03:00N 32°17' W 090°56'3 6.5
2017-Nov-15 02:30N 32°21' W 090°55'3 6.9
2017-Nov-15 02:00N 32°21' W 090°59'4 7.2
2017-Nov-15 01:30N 32°25' W 090°59'4 7.4
2017-Nov-15 01:00N 32°26' W 091°03'4 7.5
2017-Nov-15 00:30N 32°29' W 091°07'4 7.9
2017-Nov-14 23:59N 32°33' W 091°06'4 7.6
2017-Nov-14 23:30N 32°36' W 091°08'4 7.6
2017-Nov-14 22:59N 32°40' W 091°08'  

Dump ship's entire track history